sensor_id;sensor_type;location;lat;lon;timestamp;pressure;altitude;pressure_sealevel;temperature;humidity
20897;BME280;10608;42.600;23.398;2022-10-26T00:02:23;53124.38;;;-138.15;50.58
20897;BME280;10608;42.600;23.398;2022-10-26T00:04:48;53128.31;;;-138.15;50.10
20897;BME280;10608;42.600;23.398;2022-10-26T00:07:13;53128.31;;;-138.15;50.03
20897;BME280;10608;42.600;23.398;2022-10-26T00:09:39;53092.81;;;-138.15;50.58
20897;BME280;10608;42.600;23.398;2022-10-26T00:12:04;53096.75;;;-138.15;50.57
20897;BME280;10608;42.600;23.398;2022-10-26T00:14:30;53120.41;;;-138.15;50.86
20897;BME280;10608;42.600;23.398;2022-10-26T00:16:55;53132.25;;;-138.15;51.56
20897;BME280;10608;42.600;23.398;2022-10-26T00:19:21;53108.59;;;-138.15;51.39
20897;BME280;10608;42.600;23.398;2022-10-26T00:21:47;53140.13;;;-138.15;51.52
20897;BME280;10608;42.600;23.398;2022-10-26T00:24:12;53134.22;;;-138.15;51.59
20897;BME280;10608;42.600;23.398;2022-10-26T00:26:38;53094.78;;;-138.15;51.47
20897;BME280;10608;42.600;23.398;2022-10-26T00:29:04;53096.75;;;-138.15;51.59
20897;BME280;10608;42.600;23.398;2022-10-26T00:31:30;53106.59;;;-138.15;51.58
20897;BME280;10608;42.600;23.398;2022-10-26T00:33:56;53140.13;;;-138.15;51.13
20897;BME280;10608;42.600;23.398;2022-10-26T00:36:23;53118.44;;;-138.15;51.05
20897;BME280;10608;42.600;23.398;2022-10-26T00:38:54;53151.97;;;-138.15;51.40
20897;BME280;10608;42.600;23.398;2022-10-26T00:41:25;53096.75;;;-138.15;51.61
20897;BME280;10608;42.600;23.398;2022-10-26T00:43:52;53084.91;;;-138.15;51.59
20897;BME280;10608;42.600;23.398;2022-10-26T00:46:34;53140.13;;;-138.15;51.97
20897;BME280;10608;42.600;23.398;2022-10-26T00:49:12;53118.44;;;-138.15;53.21
20897;BME280;10608;42.600;23.398;2022-10-26T00:51:45;53118.44;;;-138.15;52.54
20897;BME280;10608;42.600;23.398;2022-10-26T00:54:15;53108.59;;;-138.15;53.56
20897;BME280;10608;42.600;23.398;2022-10-26T00:56:46;53140.13;;;-138.15;53.61
20897;BME280;10608;42.600;23.398;2022-10-26T00:59:15;53092.81;;;-138.15;53.55
20897;BME280;10608;42.600;23.398;2022-10-26T01:01:43;53134.22;;;-138.15;53.29
20897;BME280;10608;42.600;23.398;2022-10-26T01:04:12;53120.41;;;-138.15;54.14
20897;BME280;10608;42.600;23.398;2022-10-26T01:06:39;53136.19;;;-138.15;53.88
20897;BME280;10608;42.600;23.398;2022-10-26T01:09:05;53112.53;;;-138.15;53.86
20897;BME280;10608;42.600;23.398;2022-10-26T01:11:31;53118.44;;;-138.15;53.80
20897;BME280;10608;42.600;23.398;2022-10-26T01:13:58;53126.34;;;-138.15;53.22
20897;BME280;10608;42.600;23.398;2022-10-26T01:22:04;53140.13;;;-138.15;54.23
20897;BME280;10608;42.600;23.398;2022-10-26T01:27:28;53108.59;;;-138.15;53.82
20897;BME280;10608;42.600;23.398;2022-10-26T01:35:32;53110.56;;;-138.15;56.81
20897;BME280;10608;42.600;23.398;2022-10-26T01:40:42;53148.03;;;-138.15;55.23
20897;BME280;10608;42.600;23.398;2022-10-26T01:43:12;53124.38;;;-138.15;57.15
20897;BME280;10608;42.600;23.398;2022-10-26T01:45:42;53130.28;;;-138.15;56.55
20897;BME280;10608;42.600;23.398;2022-10-26T01:48:11;53114.50;;;-138.15;56.40
20897;BME280;10608;42.600;23.398;2022-10-26T01:50:39;53140.13;;;-138.15;57.11
20897;BME280;10608;42.600;23.398;2022-10-26T01:53:06;53126.34;;;-138.15;58.24
20897;BME280;10608;42.600;23.398;2022-10-26T01:55:46;53084.91;;;-138.15;58.70
20897;BME280;10608;42.600;23.398;2022-10-26T02:03:47;53122.38;;;-138.15;59.12
20897;BME280;10608;42.600;23.398;2022-10-26T02:06:38;53132.25;;;-138.15;58.79
20897;BME280;10608;42.600;23.398;2022-10-26T02:11:47;53114.50;;;-138.15;59.86
20897;BME280;10608;42.600;23.398;2022-10-26T02:14:41;53128.31;;;-138.15;60.89
20897;BME280;10608;42.600;23.398;2022-10-26T02:20:26;53140.13;;;-138.15;60.12
20897;BME280;10608;42.600;23.398;2022-10-26T02:22:54;53148.03;;;-138.15;60.07
20897;BME280;10608;42.600;23.398;2022-10-26T02:25:26;53102.66;;;-138.15;60.68
20897;BME280;10608;42.600;23.398;2022-10-26T02:27:56;53088.84;;;-138.15;59.30
20897;BME280;10608;42.600;23.398;2022-10-26T02:30:24;53100.69;;;-138.15;59.77
20897;BME280;10608;42.600;23.398;2022-10-26T02:32:51;53124.38;;;-138.15;60.13
20897;BME280;10608;42.600;23.398;2022-10-26T02:35:22;53120.41;;;-138.15;58.75
20897;BME280;10608;42.600;23.398;2022-10-26T02:37:51;53120.41;;;-138.15;59.46
20897;BME280;10608;42.600;23.398;2022-10-26T02:40:21;53120.41;;;-138.15;59.44
20897;BME280;10608;42.600;23.398;2022-10-26T02:42:49;53136.19;;;-138.15;59.59
20897;BME280;10608;42.600;23.398;2022-10-26T02:45:20;53102.66;;;-138.15;59.19
20897;BME280;10608;42.600;23.398;2022-10-26T02:47:46;53120.41;;;-138.15;59.82
20897;BME280;10608;42.600;23.398;2022-10-26T02:50:12;53102.66;;;-138.15;60.04
20897;BME280;10608;42.600;23.398;2022-10-26T02:57:34;53136.19;;;-138.15;60.70
20897;BME280;10608;42.600;23.398;2022-10-26T03:00:05;53128.31;;;-138.15;61.13
20897;BME280;10608;42.600;23.398;2022-10-26T03:02:31;53090.81;;;-138.15;61.57
20897;BME280;10608;42.600;23.398;2022-10-26T03:05:06;53100.69;;;-138.15;62.15
20897;BME280;10608;42.600;23.398;2022-10-26T03:07:34;53096.75;;;-138.15;62.18
20897;BME280;10608;42.600;23.398;2022-10-26T03:09:59;53134.22;;;-138.15;60.94
20897;BME280;10608;42.600;23.398;2022-10-26T03:12:24;53126.34;;;-138.15;60.69
20897;BME280;10608;42.600;23.398;2022-10-26T03:14:50;53108.59;;;-138.15;62.19
20897;BME280;10608;42.600;23.398;2022-10-26T03:17:15;53118.44;;;-138.15;61.76
20897;BME280;10608;42.600;23.398;2022-10-26T03:19:41;53124.38;;;-138.15;61.96
20897;BME280;10608;42.600;23.398;2022-10-26T03:22:06;53155.91;;;-138.15;61.73
20897;BME280;10608;42.600;23.398;2022-10-26T03:24:31;53098.72;;;-138.15;61.93
20897;BME280;10608;42.600;23.398;2022-10-26T03:26:57;53112.53;;;-138.15;62.79
20897;BME280;10608;42.600;23.398;2022-10-26T03:29:22;53146.06;;;-138.15;62.97
20897;BME280;10608;42.600;23.398;2022-10-26T03:31:48;53138.16;;;-138.15;62.33
20897;BME280;10608;42.600;23.398;2022-10-26T03:34:18;53138.16;;;-138.15;63.32
20897;BME280;10608;42.600;23.398;2022-10-26T03:36:44;53132.25;;;-138.15;63.68
20897;BME280;10608;42.600;23.398;2022-10-26T03:39:09;53124.38;;;-138.15;63.28
20897;BME280;10608;42.600;23.398;2022-10-26T03:41:34;53140.13;;;-138.15;64.12
20897;BME280;10608;42.600;23.398;2022-10-26T03:44:00;53110.56;;;-138.15;64.64
20897;BME280;10608;42.600;23.398;2022-10-26T03:46:25;53104.63;;;-138.15;64.74
20897;BME280;10608;42.600;23.398;2022-10-26T03:48:51;53096.75;;;-138.15;64.91
20897;BME280;10608;42.600;23.398;2022-10-26T03:51:16;53118.44;;;-138.15;65.37
20897;BME280;10608;42.600;23.398;2022-10-26T03:53:41;53108.59;;;-138.15;65.05
20897;BME280;10608;42.600;23.398;2022-10-26T03:56:07;53118.44;;;-138.15;65.02
20897;BME280;10608;42.600;23.398;2022-10-26T03:58:32;53124.38;;;-138.15;64.81
20897;BME280;10608;42.600;23.398;2022-10-26T04:00:58;53110.56;;;-138.15;65.22
20897;BME280;10608;42.600;23.398;2022-10-26T04:03:23;53128.31;;;-138.15;65.68
20897;BME280;10608;42.600;23.398;2022-10-26T04:05:49;53124.38;;;-138.15;65.31
20897;BME280;10608;42.600;23.398;2022-10-26T04:08:14;53134.22;;;-138.15;67.40
20897;BME280;10608;42.600;23.398;2022-10-26T04:10:39;53132.25;;;-138.15;67.98
20897;BME280;10608;42.600;23.398;2022-10-26T04:13:05;53134.22;;;-138.15;68.14
20897;BME280;10608;42.600;23.398;2022-10-26T04:15:30;53128.31;;;-138.15;67.54
20897;BME280;10608;42.600;23.398;2022-10-26T04:17:57;53124.38;;;-138.15;67.57
20897;BME280;10608;42.600;23.398;2022-10-26T04:20:24;53118.44;;;-138.15;67.22
20897;BME280;10608;42.600;23.398;2022-10-26T04:22:58;53124.38;;;-138.15;66.96
20897;BME280;10608;42.600;23.398;2022-10-26T04:25:23;53130.28;;;-138.15;66.47
20897;BME280;10608;42.600;23.398;2022-10-26T04:27:49;53148.03;;;-138.15;66.53
20897;BME280;10608;42.600;23.398;2022-10-26T04:30:14;53140.13;;;-138.15;67.87
20897;BME280;10608;42.600;23.398;2022-10-26T04:32:40;53128.31;;;-138.15;68.03
20897;BME280;10608;42.600;23.398;2022-10-26T04:35:05;53120.41;;;-138.15;70.34
20897;BME280;10608;42.600;23.398;2022-10-26T04:37:32;53144.09;;;-138.15;69.34
20897;BME280;10608;42.600;23.398;2022-10-26T04:39:57;53163.81;;;-138.15;68.46
20897;BME280;10608;42.600;23.398;2022-10-26T04:42:23;53102.66;;;-138.15;68.90
20897;BME280;10608;42.600;23.398;2022-10-26T04:44:48;53144.09;;;-138.15;68.32
20897;BME280;10608;42.600;23.398;2022-10-26T04:47:14;53128.31;;;-138.15;68.96
20897;BME280;10608;42.600;23.398;2022-10-26T04:49:39;53134.22;;;-138.15;68.82
20897;BME280;10608;42.600;23.398;2022-10-26T04:52:05;53124.38;;;-138.15;68.29
20897;BME280;10608;42.600;23.398;2022-10-26T04:54:30;53118.44;;;-138.15;68.29
20897;BME280;10608;42.600;23.398;2022-10-26T04:56:56;53136.19;;;-138.15;66.93
20897;BME280;10608;42.600;23.398;2022-10-26T04:59:21;53138.16;;;-138.15;66.08
20897;BME280;10608;42.600;23.398;2022-10-26T05:01:47;53108.59;;;-138.15;65.08
20897;BME280;10608;42.600;23.398;2022-10-26T05:04:12;53128.31;;;-138.15;65.26
20897;BME280;10608;42.600;23.398;2022-10-26T05:06:38;53142.13;;;-138.15;64.58
20897;BME280;10608;42.600;23.398;2022-10-26T05:09:03;53124.38;;;-138.15;64.96
20897;BME280;10608;42.600;23.398;2022-10-26T05:11:28;53134.22;;;-138.15;64.99
20897;BME280;10608;42.600;23.398;2022-10-26T05:13:54;53102.66;;;-138.15;65.46
20897;BME280;10608;42.600;23.398;2022-10-26T05:16:19;53144.09;;;-138.15;65.60
20897;BME280;10608;42.600;23.398;2022-10-26T05:18:47;53106.59;;;-138.15;65.98
20897;BME280;10608;42.600;23.398;2022-10-26T05:21:13;53116.47;;;-138.15;66.82
20897;BME280;10608;42.600;23.398;2022-10-26T05:23:50;53138.16;;;-138.15;68.28
20897;BME280;10608;42.600;23.398;2022-10-26T05:26:18;53118.44;;;-138.15;67.79
20897;BME280;10608;42.600;23.398;2022-10-26T05:28:44;53146.06;;;-138.15;69.40
20897;BME280;10608;42.600;23.398;2022-10-26T05:31:10;53151.97;;;-138.15;68.58
20897;BME280;10608;42.600;23.398;2022-10-26T05:33:35;53140.13;;;-138.15;64.20
20897;BME280;10608;42.600;23.398;2022-10-26T05:36:01;53136.19;;;-138.15;59.66
20897;BME280;10608;42.600;23.398;2022-10-26T05:38:26;53128.31;;;-138.15;59.03
20897;BME280;10608;42.600;23.398;2022-10-26T05:40:53;53136.19;;;-138.15;57.84
20897;BME280;10608;42.600;23.398;2022-10-26T05:43:20;53148.03;;;-138.15;53.61
20897;BME280;10608;42.600;23.398;2022-10-26T05:45:46;53136.19;;;-138.15;49.66
20897;BME280;10608;42.600;23.398;2022-10-26T05:48:11;53086.88;;;-138.15;45.15
20897;BME280;10608;42.600;23.398;2022-10-26T05:50:37;53090.81;;;-138.15;42.50
20897;BME280;10608;42.600;23.398;2022-10-26T05:53:02;53061.25;;;-138.15;39.44
20897;BME280;10608;42.600;23.398;2022-10-26T05:55:29;53100.69;;;-138.15;39.07
20897;BME280;10608;42.600;23.398;2022-10-26T05:57:55;53067.16;;;-138.15;35.68
20897;BME280;10608;42.600;23.398;2022-10-26T06:00:23;53033.63;;;-138.15;32.89
20897;BME280;10608;42.600;23.398;2022-10-26T06:05:56;53080.97;;;-138.15;34.65
20897;BME280;10608;42.600;23.398;2022-10-26T06:08:24;53041.50;;;-138.15;30.84
20897;BME280;10608;42.600;23.398;2022-10-26T06:10:50;53017.84;;;-138.15;28.55
20897;BME280;10608;42.600;23.398;2022-10-26T06:13:16;52982.34;;;-138.15;26.20
20897;BME280;10608;42.600;23.398;2022-10-26T06:21:25;52935.00;;;-138.15;23.40
20897;BME280;10608;42.600;23.398;2022-10-26T06:24:07;52982.34;;;-138.15;23.38
20897;BME280;10608;42.600;23.398;2022-10-26T06:26:45;52919.22;;;-138.15;21.77
20897;BME280;10608;42.600;23.398;2022-10-26T06:32:07;52927.09;;;-138.15;22.24
20897;BME280;10608;42.600;23.398;2022-10-26T06:34:34;53009.94;;;-138.15;24.06
20897;BME280;10608;42.600;23.398;2022-10-26T06:37:01;52964.56;;;-138.15;22.57
20897;BME280;10608;42.600;23.398;2022-10-26T06:39:30;52913.28;;;-138.15;21.60
20897;BME280;10608;42.600;23.398;2022-10-26T06:41:59;52935.00;;;-138.15;21.60
20897;BME280;10608;42.600;23.398;2022-10-26T06:44:26;52923.16;;;-138.15;21.41
20897;BME280;10608;42.600;23.398;2022-10-26T06:49:24;52865.94;;;-138.15;20.41
20897;BME280;10608;42.600;23.398;2022-10-26T06:51:58;52856.09;;;-138.15;20.84
20897;BME280;10608;42.600;23.398;2022-10-26T06:54:49;52860.03;;;-138.15;20.10
20897;BME280;10608;42.600;23.398;2022-10-26T06:57:23;52863.97;;;-138.15;19.51
20897;BME280;10608;42.600;23.398;2022-10-26T06:59:54;52887.66;;;-138.15;20.37
20897;BME280;10608;42.600;23.398;2022-10-26T07:02:20;52856.09;;;-138.15;20.29
20897;BME280;10608;42.600;23.398;2022-10-26T07:04:46;52905.41;;;-138.15;21.01
20897;BME280;10608;42.600;23.398;2022-10-26T07:07:18;52911.31;;;-138.15;21.04
20897;BME280;10608;42.600;23.398;2022-10-26T07:09:45;52901.47;;;-138.15;20.99
20897;BME280;10608;42.600;23.398;2022-10-26T07:12:10;52905.41;;;-138.15;22.10
20897;BME280;10608;42.600;23.398;2022-10-26T07:14:35;52919.22;;;-138.15;22.60
20897;BME280;10608;42.600;23.398;2022-10-26T07:17:01;52946.81;;;-138.15;23.98
20897;BME280;10608;42.600;23.398;2022-10-26T07:19:27;52954.72;;;-138.15;23.00
20897;BME280;10608;42.600;23.398;2022-10-26T07:21:56;52992.19;;;-138.15;24.11
20897;BME280;10608;42.600;23.398;2022-10-26T07:24:23;52966.56;;;-138.15;25.49
20897;BME280;10608;42.600;23.398;2022-10-26T07:26:48;52978.38;;;-138.15;25.41
20897;BME280;10608;42.600;23.398;2022-10-26T07:29:14;52970.50;;;-138.15;25.95
20897;BME280;10608;42.600;23.398;2022-10-26T07:31:42;52994.16;;;-138.15;26.97
20897;BME280;10608;42.600;23.398;2022-10-26T07:34:07;52966.56;;;-138.15;26.23
20897;BME280;10608;42.600;23.398;2022-10-26T07:36:33;52950.78;;;-138.15;24.77
20897;BME280;10608;42.600;23.398;2022-10-26T07:39:01;52950.78;;;-138.15;23.94
20897;BME280;10608;42.600;23.398;2022-10-26T07:41:27;52921.19;;;-138.15;22.42
20897;BME280;10608;42.600;23.398;2022-10-26T07:43:52;52942.88;;;-138.15;21.89
20897;BME280;10608;42.600;23.398;2022-10-26T07:46:18;52936.97;;;-138.15;22.30
20897;BME280;10608;42.600;23.398;2022-10-26T07:48:43;52938.94;;;-138.15;22.70
20897;BME280;10608;42.600;23.398;2022-10-26T07:51:09;52905.41;;;-138.15;22.66
20897;BME280;10608;42.600;23.398;2022-10-26T07:53:34;52897.50;;;-138.15;21.83
20897;BME280;10608;42.600;23.398;2022-10-26T07:56:00;52887.66;;;-138.15;20.64
20897;BME280;10608;42.600;23.398;2022-10-26T07:58:25;52887.66;;;-138.15;19.99
20897;BME280;10608;42.600;23.398;2022-10-26T08:00:52;52848.19;;;-138.15;19.20
20897;BME280;10608;42.600;23.398;2022-10-26T08:03:18;52804.81;;;-138.15;19.13
20897;BME280;10608;42.600;23.398;2022-10-26T08:05:45;52826.50;;;-138.15;18.35
20897;BME280;10608;42.600;23.398;2022-10-26T08:08:12;52852.16;;;-138.15;18.43
20897;BME280;10608;42.600;23.398;2022-10-26T08:10:42;52832.41;;;-138.15;19.17
20897;BME280;10608;42.600;23.398;2022-10-26T08:13:08;52887.66;;;-138.15;19.69
20897;BME280;10608;42.600;23.398;2022-10-26T08:15:33;52907.38;;;-138.15;20.92
20897;BME280;10608;42.600;23.398;2022-10-26T08:17:59;52901.47;;;-138.15;21.82
20897;BME280;10608;42.600;23.398;2022-10-26T08:20:24;52923.16;;;-138.15;22.43
20897;BME280;10608;42.600;23.398;2022-10-26T08:22:50;52925.13;;;-138.15;21.47
20897;BME280;10608;42.600;23.398;2022-10-26T08:25:17;52938.94;;;-138.15;21.36
20897;BME280;10608;42.600;23.398;2022-10-26T08:27:43;52980.34;;;-138.15;22.91
20897;BME280;10608;42.600;23.398;2022-10-26T08:30:10;52958.66;;;-138.15;22.18
20897;BME280;10608;42.600;23.398;2022-10-26T08:32:35;52935.00;;;-138.15;21.67
20897;BME280;10608;42.600;23.398;2022-10-26T08:35:00;52946.81;;;-138.15;22.27
20897;BME280;10608;42.600;23.398;2022-10-26T08:37:26;52954.72;;;-138.15;21.92
20897;BME280;10608;42.600;23.398;2022-10-26T08:39:52;52905.41;;;-138.15;21.36
20897;BME280;10608;42.600;23.398;2022-10-26T08:42:37;52990.22;;;-138.15;23.20
20897;BME280;10608;42.600;23.398;2022-10-26T08:45:16;52966.56;;;-138.15;22.82
20897;BME280;10608;42.600;23.398;2022-10-26T08:47:46;52974.44;;;-138.15;22.52
20897;BME280;10608;42.600;23.398;2022-10-26T08:53:13;52954.72;;;-138.15;21.54
20897;BME280;10608;42.600;23.398;2022-10-26T08:56:02;52938.94;;;-138.15;22.17
20897;BME280;10608;42.600;23.398;2022-10-26T08:58:38;52968.53;;;-138.15;21.94
20897;BME280;10608;42.600;23.398;2022-10-26T09:01:04;52948.78;;;-138.15;21.57
20897;BME280;10608;42.600;23.398;2022-10-26T09:03:30;52942.88;;;-138.15;20.97
20897;BME280;10608;42.600;23.398;2022-10-26T09:06:24;52919.22;;;-138.15;20.59
20897;BME280;10608;42.600;23.398;2022-10-26T09:09:20;52911.31;;;-138.15;20.17
20897;BME280;10608;42.600;23.398;2022-10-26T09:17:22;52936.97;;;-138.15;21.00
20897;BME280;10608;42.600;23.398;2022-10-26T09:25:26;53002.06;;;-138.15;23.25
20897;BME280;10608;42.600;23.398;2022-10-26T09:27:58;52946.81;;;-138.15;21.98
20897;BME280;10608;42.600;23.398;2022-10-26T09:30:24;52950.78;;;-138.15;21.53
20897;BME280;10608;42.600;23.398;2022-10-26T09:33:01;52935.00;;;-138.15;21.31
20897;BME280;10608;42.600;23.398;2022-10-26T09:35:38;52998.13;;;-138.15;22.69
20897;BME280;10608;42.600;23.398;2022-10-26T09:38:16;52919.22;;;-138.15;20.82
20897;BME280;10608;42.600;23.398;2022-10-26T09:41:50;52938.94;;;-138.15;21.05
20897;BME280;10608;42.600;23.398;2022-10-26T09:46:24;52933.03;;;-138.15;20.15
20897;BME280;10608;42.600;23.398;2022-10-26T09:48:54;52940.91;;;-138.15;19.96
20897;BME280;10608;42.600;23.398;2022-10-26T09:51:22;52909.34;;;-138.15;19.49
20897;BME280;10608;42.600;23.398;2022-10-26T09:53:48;52950.78;;;-138.15;19.52
20897;BME280;10608;42.600;23.398;2022-10-26T09:56:15;52962.59;;;-138.15;20.81
20897;BME280;10608;42.600;23.398;2022-10-26T09:58:47;52974.44;;;-138.15;23.04
20897;BME280;10608;42.600;23.398;2022-10-26T10:01:28;52988.25;;;-138.15;24.09
20897;BME280;10608;42.600;23.398;2022-10-26T10:06:44;53017.84;;;-138.15;25.55
20897;BME280;10608;42.600;23.398;2022-10-26T10:09:18;53061.25;;;-138.15;26.83
20897;BME280;10608;42.600;23.398;2022-10-26T10:11:56;53057.28;;;-138.15;27.23
20897;BME280;10608;42.600;23.398;2022-10-26T10:14:27;53025.72;;;-138.15;27.57
20897;BME280;10608;42.600;23.398;2022-10-26T10:16:57;53039.53;;;-138.15;26.71
20897;BME280;10608;42.600;23.398;2022-10-26T10:19:31;53025.72;;;-138.15;25.98
20897;BME280;10608;42.600;23.398;2022-10-26T10:21:59;53043.47;;;-138.15;26.28
20897;BME280;10608;42.600;23.398;2022-10-26T10:24:29;53041.50;;;-138.15;26.93
20897;BME280;10608;42.600;23.398;2022-10-26T10:27:04;53021.78;;;-138.15;26.95
20897;BME280;10608;42.600;23.398;2022-10-26T10:29:32;53033.63;;;-138.15;26.66
20897;BME280;10608;42.600;23.398;2022-10-26T10:32:01;53004.03;;;-138.15;27.10
20897;BME280;10608;42.600;23.398;2022-10-26T10:34:31;53037.56;;;-138.15;27.40
20897;BME280;10608;42.600;23.398;2022-10-26T10:36:58;53021.78;;;-138.15;28.09
20897;BME280;10608;42.600;23.398;2022-10-26T10:39:32;53047.44;;;-138.15;27.50
20897;BME280;10608;42.600;23.398;2022-10-26T10:41:59;53049.41;;;-138.15;27.45
20897;BME280;10608;42.600;23.398;2022-10-26T10:44:29;53021.78;;;-138.15;27.05
20897;BME280;10608;42.600;23.398;2022-10-26T10:47:01;53033.63;;;-138.15;27.87
20897;BME280;10608;42.600;23.398;2022-10-26T10:49:28;53002.06;;;-138.15;27.42
20897;BME280;10608;42.600;23.398;2022-10-26T10:51:55;53080.97;;;-138.15;27.96
20897;BME280;10608;42.600;23.398;2022-10-26T10:56:56;53055.31;;;-138.15;27.47
20897;BME280;10608;42.600;23.398;2022-10-26T11:05:11;53061.25;;;-138.15;28.32
20897;BME280;10608;42.600;23.398;2022-10-26T11:07:50;53031.66;;;-138.15;28.73
20897;BME280;10608;42.600;23.398;2022-10-26T11:10:20;53057.28;;;-138.15;28.79
20897;BME280;10608;42.600;23.398;2022-10-26T11:12:54;53051.38;;;-138.15;28.29
20897;BME280;10608;42.600;23.398;2022-10-26T11:15:23;53021.78;;;-138.15;29.07
20897;BME280;10608;42.600;23.398;2022-10-26T11:18:04;53045.47;;;-138.15;29.22
20897;BME280;10608;42.600;23.398;2022-10-26T11:20:35;53047.44;;;-138.15;28.45
20897;BME280;10608;42.600;23.398;2022-10-26T11:23:08;53037.56;;;-138.15;28.61
20897;BME280;10608;42.600;23.398;2022-10-26T11:25:50;53057.28;;;-138.15;29.32
20897;BME280;10608;42.600;23.398;2022-10-26T11:28:36;53033.63;;;-138.15;29.50
20897;BME280;10608;42.600;23.398;2022-10-26T11:31:07;53037.56;;;-138.15;29.51
20897;BME280;10608;42.600;23.398;2022-10-26T11:33:45;53033.63;;;-138.15;29.19
20897;BME280;10608;42.600;23.398;2022-10-26T11:36:16;53017.84;;;-138.15;29.33
20897;BME280;10608;42.600;23.398;2022-10-26T11:46:33;53033.63;;;-138.15;29.12
20897;BME280;10608;42.600;23.398;2022-10-26T11:51:47;53073.06;;;-138.15;30.02
20897;BME280;10608;42.600;23.398;2022-10-26T11:54:21;53017.84;;;-138.15;30.11
20897;BME280;10608;42.600;23.398;2022-10-26T11:56:50;53041.50;;;-138.15;30.21
20897;BME280;10608;42.600;23.398;2022-10-26T11:59:19;53059.25;;;-138.15;30.31
20897;BME280;10608;42.600;23.398;2022-10-26T12:01:50;53065.19;;;-138.15;29.71
20897;BME280;10608;42.600;23.398;2022-10-26T12:04:19;53039.53;;;-138.15;30.14
20897;BME280;10608;42.600;23.398;2022-10-26T12:06:47;53015.88;;;-138.15;30.04
20897;BME280;10608;42.600;23.398;2022-10-26T12:09:19;53112.53;;;-138.15;30.49
20897;BME280;10608;42.600;23.398;2022-10-26T12:12:00;53057.28;;;-138.15;30.36
20897;BME280;10608;42.600;23.398;2022-10-26T12:14:36;53029.69;;;-138.15;29.94
20897;BME280;10608;42.600;23.398;2022-10-26T12:17:15;53045.47;;;-138.15;28.65
20897;BME280;10608;42.600;23.398;2022-10-26T12:22:46;53041.50;;;-138.15;28.91
20897;BME280;10608;42.600;23.398;2022-10-26T12:30:22;53063.22;;;-138.15;28.28
20897;BME280;10608;42.600;23.398;2022-10-26T12:32:56;53033.63;;;-138.15;28.35
20897;BME280;10608;42.600;23.398;2022-10-26T12:38:00;53057.28;;;-138.15;28.41
20897;BME280;10608;42.600;23.398;2022-10-26T12:42:55;53055.31;;;-138.15;28.01
20897;BME280;10608;42.600;23.398;2022-10-26T12:45:21;53035.59;;;-138.15;28.20
20897;BME280;10608;42.600;23.398;2022-10-26T13:00:47;53057.28;;;-138.15;27.46
20897;BME280;10608;42.600;23.398;2022-10-26T13:08:48;53063.22;;;-138.15;26.87
20897;BME280;10608;42.600;23.398;2022-10-26T13:13:54;53057.28;;;-138.15;26.96
20897;BME280;10608;42.600;23.398;2022-10-26T13:16:20;53084.91;;;-138.15;26.94
20897;BME280;10608;42.600;23.398;2022-10-26T13:18:48;53057.28;;;-138.15;27.18
20897;BME280;10608;42.600;23.398;2022-10-26T13:21:16;53037.56;;;-138.15;27.01
20897;BME280;10608;42.600;23.398;2022-10-26T13:23:44;53065.19;;;-138.15;27.42
20897;BME280;10608;42.600;23.398;2022-10-26T13:26:13;53059.25;;;-138.15;27.04
20897;BME280;10608;42.600;23.398;2022-10-26T13:31:12;53025.72;;;-138.15;27.05
20897;BME280;10608;42.600;23.398;2022-10-26T13:33:42;53057.28;;;-138.15;26.45
20897;BME280;10608;42.600;23.398;2022-10-26T13:36:42;53033.63;;;-138.15;26.85
20897;BME280;10608;42.600;23.398;2022-10-26T13:39:18;53045.47;;;-138.15;26.99
20897;BME280;10608;42.600;23.398;2022-10-26T13:41:46;53079.00;;;-138.15;26.58
20897;BME280;10608;42.600;23.398;2022-10-26T13:44:40;53077.03;;;-138.15;26.33
20897;BME280;10608;42.600;23.398;2022-10-26T13:47:08;53047.44;;;-138.15;26.90
20897;BME280;10608;42.600;23.398;2022-10-26T13:49:38;53075.03;;;-138.15;26.49
20897;BME280;10608;42.600;23.398;2022-10-26T13:52:15;53051.38;;;-138.15;26.45
20897;BME280;10608;42.600;23.398;2022-10-26T13:57:35;53067.16;;;-138.15;25.80
20897;BME280;10608;42.600;23.398;2022-10-26T14:00:21;53090.81;;;-138.15;26.04
20897;BME280;10608;42.600;23.398;2022-10-26T14:02:47;53049.41;;;-138.15;26.20
20897;BME280;10608;42.600;23.398;2022-10-26T14:05:15;53088.84;;;-138.15;25.92
20897;BME280;10608;42.600;23.398;2022-10-26T14:07:47;53021.78;;;-138.15;25.43
20897;BME280;10608;42.600;23.398;2022-10-26T14:10:24;53080.97;;;-138.15;25.20
20897;BME280;10608;42.600;23.398;2022-10-26T14:12:51;53077.03;;;-138.15;25.69
20897;BME280;10608;42.600;23.398;2022-10-26T14:15:22;53063.22;;;-138.15;25.60
20897;BME280;10608;42.600;23.398;2022-10-26T14:17:52;53051.38;;;-138.15;25.73
20897;BME280;10608;42.600;23.398;2022-10-26T14:20:21;53069.13;;;-138.15;25.64
20897;BME280;10608;42.600;23.398;2022-10-26T14:22:48;53057.28;;;-138.15;25.53
20897;BME280;10608;42.600;23.398;2022-10-26T14:25:24;53079.00;;;-138.15;25.48
20897;BME280;10608;42.600;23.398;2022-10-26T14:27:50;53049.41;;;-138.15;25.52
20897;BME280;10608;42.600;23.398;2022-10-26T14:30:27;53067.16;;;-138.15;25.26
20897;BME280;10608;42.600;23.398;2022-10-26T14:32:53;53077.03;;;-138.15;25.43
20897;BME280;10608;42.600;23.398;2022-10-26T14:35:28;53049.41;;;-138.15;25.88
20897;BME280;10608;42.600;23.398;2022-10-26T14:37:55;53057.28;;;-138.15;26.18
20897;BME280;10608;42.600;23.398;2022-10-26T14:40:25;53069.13;;;-138.15;26.88
20897;BME280;10608;42.600;23.398;2022-10-26T14:42:54;53065.19;;;-138.15;27.10
20897;BME280;10608;42.600;23.398;2022-10-26T14:45:26;53047.44;;;-138.15;27.57
20897;BME280;10608;42.600;23.398;2022-10-26T14:47:53;53075.03;;;-138.15;28.01